Time;durP1;ratioP1;P1;durP2;ratioP2;P2;SDS_P1;SDS_P2;PMS_P1;PMS_P2;Temp;Humidity;BMP_temperature;BMP_pressure;BME280_temperature;BME280_humidity;BME280_pressure;Samples;Min_cycle;Max_cycle;Signal;HPM_P1;HPM_P2
2022/07/10 00:01:16;;;;;;;6.47;1.08;;;12.30;99.90;;;;;;5104895;27;19920;-62
2022/07/10 00:03:44;;;;;;;;;;;12.30;99.90;;;;;;5105099;28;20044;-65
2022/07/10 00:06:09;;;;;;;;;;;12.30;99.90;;;;;;5107584;28;19965;-63
2022/07/10 00:08:35;;;;;;;6.78;1.45;;;12.30;99.90;;;;;;5102558;28;19947;-63
2022/07/10 00:11:00;;;;;;;;;;;12.30;99.90;;;;;;5104707;28;20090;-64
2022/07/10 00:13:26;;;;;;;9.15;1.48;;;12.30;99.90;;;;;;5102529;28;19920;-62
2022/07/10 00:15:51;;;;;;;;;;;12.30;99.90;;;;;;5102958;28;20040;-63
2022/07/10 00:18:17;;;;;;;8.68;1.48;;;12.30;99.90;;;;;;5094369;28;19920;-62
2022/07/10 00:20:42;;;;;;;;;;;12.20;99.90;;;;;;5090625;28;20539;-63
2022/07/10 00:23:08;;;;;;;8.38;1.23;;;12.20;99.90;;;;;;5089603;28;19920;-62
2022/07/10 00:25:34;;;;;;;;;;;12.20;99.90;;;;;;5097682;28;20044;-62
2022/07/10 00:27:59;;;;;;;8.23;1.70;;;12.20;99.90;;;;;;5092996;28;19920;-63
2022/07/10 00:30:25;;;;;;;;;;;12.10;99.90;;;;;;5090990;28;20028;-62
2022/07/10 00:32:50;;;;;;;5.80;1.25;;;12.10;99.90;;;;;;5090717;28;19942;-62
2022/07/10 00:35:16;;;;;;;;;;;12.10;99.90;;;;;;5091290;28;20123;-64
2022/07/10 00:37:42;;;;;;;13.70;1.60;;;12.10;99.90;;;;;;5097925;28;20379;-63
2022/07/10 00:40:07;;;;;;;;;;;12.10;99.90;;;;;;5105415;28;20036;-63
2022/07/10 00:42:33;;;;;;;11.23;1.23;;;12.00;99.90;;;;;;5090648;28;20015;-63
2022/07/10 00:44:59;;;;;;;;;;;12.10;99.90;;;;;;5093124;28;20032;-62
2022/07/10 00:47:24;;;;;;;3.35;0.85;;;12.00;99.90;;;;;;5089833;28;19920;-62
2022/07/10 00:49:50;;;;;;;;;;;12.00;99.90;;;;;;5089944;28;20506;-63
2022/07/10 00:52:17;;;;;;;5.50;1.60;;;12.00;99.90;;;;;;5089624;28;19916;-62
2022/07/10 00:54:45;;;;;;;4.00;0.82;;;12.10;99.90;;;;;;5091073;28;20043;-62
2022/07/10 00:57:14;;;;;;;4.50;1.17;;;12.10;99.90;;;;;;5074031;28;20076;-63
2022/07/10 00:59:40;;;;;;;7.28;1.90;;;12.10;99.90;;;;;;5089522;28;20131;-62
2022/07/10 01:02:05;;;;;;;;;;;12.10;99.90;;;;;;5089527;28;20135;-63
2022/07/10 01:04:31;;;;;;;8.90;1.60;;;12.00;99.90;;;;;;5086110;28;19973;-62
2022/07/10 01:06:57;;;;;;;8.60;1.20;;;11.90;99.90;;;;;;5092475;28;20452;-64
2022/07/10 01:09:23;;;;;;;;;;;11.90;99.90;;;;;;5088455;28;20080;-62
2022/07/10 01:11:48;;;;;;;3.08;1.02;;;11.90;99.90;;;;;;5087946;28;19919;-63
2022/07/10 01:14:17;;;;;;;;;;;12.00;99.90;;;;;;5088069;28;20101;-64
2022/07/10 01:16:42;;;;;;;3.63;1.33;;;11.90;99.90;;;;;;5089409;28;20014;-63
2022/07/10 01:19:08;;;;;;;;;;;12.00;99.90;;;;;;5088146;28;20126;-63
2022/07/10 01:21:36;;;;;;;6.05;1.30;;;11.90;99.90;;;;;;5089458;28;20367;-63
2022/07/10 01:24:08;;;;;;;5.05;1.15;;;12.00;99.90;;;;;;5089192;28;20058;-64
2022/07/10 01:26:34;;;;;;;4.07;1.45;;;12.00;99.90;;;;;;5090006;28;20051;-64
2022/07/10 01:29:04;;;;;;;9.82;1.25;;;11.80;99.90;;;;;;5087232;28;20040;-63
2022/07/10 01:31:29;;;;;;;5.88;1.17;;;11.80;99.90;;;;;;5087483;28;20036;-63
2022/07/10 01:33:55;;;;;;;;;;;11.70;99.90;;;;;;5089562;28;20395;-63
2022/07/10 01:36:22;;;;;;;15.95;1.33;;;11.80;99.90;;;;;;5087135;28;19919;-63
2022/07/10 01:38:48;;;;;;;9.93;1.33;;;11.70;99.90;;;;;;5092586;28;20119;-63
2022/07/10 01:41:13;;;;;;;11.68;1.55;;;11.70;99.90;;;;;;5083023;28;20036;-62
2022/07/10 01:43:44;;;;;;;;;;;11.70;99.90;;;;;;5088150;28;21054;-63
2022/07/10 01:46:11;;;;;;;4.70;1.00;;;11.60;99.90;;;;;;5081625;28;19920;-63
2022/07/10 01:48:40;;;;;;;7.53;1.20;;;11.60;99.90;;;;;;5081626;28;20667;-64
2022/07/10 01:51:06;;;;;;;9.40;1.42;;;11.60;99.90;;;;;;5089716;28;20044;-62
2022/07/10 01:53:32;;;;;;;12.30;2.08;;;11.60;99.90;;;;;;5089332;28;20048;-63
2022/07/10 01:55:59;;;;;;;;;;;11.60;99.90;;;;;;5089946;28;20093;-62
2022/07/10 01:58:24;;;;;;;8.82;1.40;;;11.60;99.90;;;;;;5089816;28;19925;-63
2022/07/10 02:00:50;;;;;;;;;;;11.60;99.90;;;;;;5085025;28;20040;-63
2022/07/10 02:06:00;;;;;;;8.63;1.25;;;11.60;99.90;;;;;;5091535;28;20395;-63
2022/07/10 02:08:25;;;;;;;;;;;11.60;99.90;;;;;;5085624;28;20040;-63
2022/07/10 02:10:51;;;;;;;11.02;1.88;;;11.60;99.90;;;;;;5086073;28;20443;-63
2022/07/10 02:13:19;;;;;;;;;;;11.50;99.90;;;;;;5089012;28;20097;-64
2022/07/10 02:15:46;;;;;;;6.05;1.15;;;11.60;99.90;;;;;;5085614;28;19916;-63
2022/07/10 02:18:11;;;;;;;6.57;1.58;;;11.40;99.90;;;;;;5085561;28;20051;-63
2022/07/10 02:20:37;;;;;;;;;;;11.50;99.90;;;;;;5088125;28;20028;-63
2022/07/10 02:23:02;;;;;;;3.42;1.00;;;11.50;99.90;;;;;;5088116;28;19923;-63
2022/07/10 02:25:28;;;;;;;;;;;11.60;99.90;;;;;;5087600;28;20101;-64
2022/07/10 02:27:54;;;;;;;5.32;1.15;;;11.60;99.90;;;;;;5089642;28;19924;-63
2022/07/10 02:30:19;;;;;;;6.03;1.25;;;11.60;99.90;;;;;;5087269;28;20036;-63
2022/07/10 02:32:45;;;;;;;;;;;11.70;99.90;;;;;;5087042;28;20035;-63
2022/07/10 02:35:10;;;;;;;9.77;1.15;;;11.70;99.90;;;;;;5087535;28;19942;-63
2022/07/10 02:37:36;;;;;;;;;;;11.60;99.90;;;;;;5094580;28;20126;-64
2022/07/10 02:40:02;;;;;;;7.80;1.30;;;11.50;99.90;;;;;;5088727;28;19916;-63
2022/07/10 02:42:27;;;;;;;;;;;11.50;99.90;;;;;;5086328;28;20120;-63
2022/07/10 02:44:53;;;;;;;7.50;1.40;;;11.60;99.90;;;;;;5086694;28;19920;-64
2022/07/10 02:47:18;;;;;;;;;;;11.60;99.90;;;;;;5087593;28;20038;-63
2022/07/10 02:49:44;;;;;;;3.85;1.30;;;11.50;99.90;;;;;;5089512;28;19916;-63
2022/07/10 02:52:09;;;;;;;;;;;11.30;99.90;;;;;;5087595;28;20144;-63
2022/07/10 02:54:35;;;;;;;8.18;1.20;;;11.30;99.90;;;;;;5086459;28;19916;-63
2022/07/10 02:57:00;;;;;;;;;;;11.30;99.90;;;;;;5085208;28;20070;-64
2022/07/10 02:59:26;;;;;;;4.68;1.10;;;11.30;99.90;;;;;;5086147;28;20311;-63
2022/07/10 03:01:51;;;;;;;;;;;11.30;99.90;;;;;;5086350;28;20340;-63
2022/07/10 03:04:17;;;;;;;10.00;2.10;;;11.40;99.90;;;;;;5085652;28;19927;-64
2022/07/10 03:06:43;;;;;;;;;;;11.30;99.90;;;;;;5079472;28;20139;-63
2022/07/10 03:09:09;;;;;;;5.30;1.80;;;11.30;99.90;;;;;;5087828;28;20273;-63
2022/07/10 03:11:34;;;;;;;;;;;11.30;99.90;;;;;;5088670;28;20036;-63
2022/07/10 03:14:00;;;;;;;8.55;1.10;;;11.20;99.90;;;;;;5089582;28;19928;-63
2022/07/10 03:16:25;;;;;;;;;;;11.30;99.90;;;;;;5088483;28;20860;-64
2022/07/10 03:18:51;;;;;;;9.48;1.10;;;11.20;99.90;;;;;;5083859;28;19920;-64
2022/07/10 03:21:16;;;;;;;;;;;11.20;99.90;;;;;;5084688;28;20581;-62
2022/07/10 03:23:42;;;;;;;7.18;1.15;;;11.20;99.90;;;;;;5078612;28;19922;-63
2022/07/10 03:26:07;;;;;;;;;;;11.20;99.90;;;;;;5085569;28;20047;-64
2022/07/10 03:28:33;;;;;;;13.18;1.58;;;11.20;99.90;;;;;;5086003;28;19959;-63
2022/07/10 03:30:58;;;;;;;;;;;11.30;99.90;;;;;;5086616;28;20081;-62
2022/07/10 03:33:24;;;;;;;7.20;1.42;;;11.30;99.90;;;;;;5088701;28;20598;-63
2022/07/10 03:35:49;;;;;;;;;;;11.20;99.90;;;;;;5087056;28;20165;-63
2022/07/10 03:38:15;;;;;;;7.22;1.50;;;11.20;99.90;;;;;;5085084;28;20428;-62
2022/07/10 03:40:40;;;;;;;;;;;11.30;99.90;;;;;;5089284;28;20035;-63
2022/07/10 03:43:06;;;;;;;7.32;1.15;;;11.20;99.90;;;;;;5085449;28;19920;-62
2022/07/10 03:45:32;;;;;;;;;;;11.30;99.90;;;;;;5086953;28;20043;-63
2022/07/10 03:47:57;;;;;;;6.18;1.83;;;11.30;99.90;;;;;;5089501;28;19923;-64
2022/07/10 03:50:23;;;;;;;;;;;11.20;99.90;;;;;;5090180;28;20040;-63
2022/07/10 03:52:48;;;;;;;9.85;1.58;;;11.30;99.90;;;;;;5087356;28;19916;-63
2022/07/10 03:55:14;;;;;;;;;;;11.30;99.90;;;;;;5084000;28;20035;-64
2022/07/10 03:57:56;;;;;;;12.00;2.80;;;11.30;99.90;;;;;;5091185;28;19933;-63
2022/07/10 04:00:32;;;;;;;7.05;1.52;;;11.20;99.90;;;;;;5072388;28;20055;-63
2022/07/10 04:03:04;;;;;;;11.53;1.90;;;11.30;99.90;;;;;;5071107;28;20100;-62
2022/07/10 04:05:31;;;;;;;9.75;1.33;;;11.30;99.90;;;;;;5087719;28;20490;-63
2022/07/10 04:07:57;;;;;;;5.85;1.27;;;11.20;99.90;;;;;;5082885;28;20762;-63
2022/07/10 04:10:24;;;;;;;6.22;1.25;;;11.30;99.90;;;;;;5098005;28;20064;-63
2022/07/10 04:12:50;;;;;;;8.57;1.40;;;11.20;99.90;;;;;;5090300;28;20082;-63
2022/07/10 04:15:16;;;;;;;;;;;11.20;99.90;;;;;;5091602;28;20487;-63
2022/07/10 04:17:42;;;;;;;6.85;1.35;;;11.20;99.90;;;;;;5087458;28;19923;-62
2022/07/10 04:20:08;;;;;;;12.60;1.50;;;11.30;99.90;;;;;;5097331;28;20066;-64
2022/07/10 04:22:34;;;;;;;14.85;1.80;;;11.30;99.90;;;;;;5092707;28;20044;-64
2022/07/10 04:24:59;;;;;;;;;;;11.30;99.90;;;;;;5090028;28;20047;-63
2022/07/10 04:27:25;;;;;;;9.25;1.52;;;11.30;99.90;;;;;;5091500;28;19924;-63
2022/07/10 04:29:51;;;;;;;;;;;11.30;99.90;;;;;;5086609;28;20784;-63
2022/07/10 04:32:17;;;;;;;8.18;1.13;;;11.30;99.90;;;;;;5094940;28;20438;-63
2022/07/10 04:34:42;;;;;;;;;;;11.30;99.90;;;;;;5089246;28;20155;-63
2022/07/10 04:37:08;;;;;;;8.95;1.50;;;11.30;99.90;;;;;;5091651;28;19916;-65
2022/07/10 04:39:35;;;;;;;11.07;1.45;;;11.40;99.90;;;;;;5091642;28;20160;-64
2022/07/10 04:42:03;;;;;;;10.27;1.75;;;11.30;99.90;;;;;;5089444;28;20539;-62
2022/07/10 04:44:29;;;;;;;7.03;1.38;;;11.30;99.90;;;;;;5090012;28;20048;-63
2022/07/10 04:46:54;;;;;;;;;;;11.40;99.90;;;;;;5091916;28;20269;-64
2022/07/10 04:49:20;;;;;;;6.97;1.30;;;11.30;99.90;;;;;;5090624;28;20287;-64
2022/07/10 04:51:45;;;;;;;;;;;11.30;99.90;;;;;;5087510;28;20039;-65
2022/07/10 04:54:11;;;;;;;9.98;2.30;;;11.40;99.90;;;;;;5082964;28;19927;-63
2022/07/10 04:56:36;;;;;;;10.80;1.25;;;11.40;99.90;;;;;;5087741;28;20093;-63
2022/07/10 04:59:02;;;;;;;;;;;11.30;99.90;;;;;;5083289;28;20399;-64
2022/07/10 05:01:28;;;;;;;12.60;1.25;;;11.30;99.90;;;;;;5095648;28;19927;-63
2022/07/10 05:03:53;;;;;;;;;;;11.30;99.90;;;;;;5090151;28;20046;-63
2022/07/10 05:06:19;;;;;;;6.35;1.60;;;11.30;99.90;;;;;;5089647;28;21055;-63
2022/07/10 05:08:44;;;;;;;;;;;11.40;99.90;;;;;;5090917;28;20514;-64
2022/07/10 05:11:10;;;;;;;6.07;1.20;;;11.40;99.90;;;;;;5087587;28;19923;-62
2022/07/10 05:13:36;;;;;;;;;;;11.40;99.90;;;;;;5091754;28;20040;-63
2022/07/10 05:16:03;;;;;;;6.03;1.65;;;11.40;99.90;;;;;;5089666;28;20000;-63
2022/07/10 05:18:28;;;;;;;7.93;1.50;;;11.40;99.90;;;;;;5088218;28;20044;-62
2022/07/10 05:20:54;;;;;;;;;;;11.30;99.90;;;;;;5094636;28;20036;-63
2022/07/10 05:23:19;;;;;;;11.05;2.20;;;11.40;99.90;;;;;;5090648;28;19973;-63
2022/07/10 05:25:45;;;;;;;;;;;11.40;99.90;;;;;;5088658;28;20805;-64
2022/07/10 05:28:14;;;;;;;9.30;1.50;;;11.40;99.90;;;;;;5086905;28;19975;-63
2022/07/10 05:30:39;;;;;;;10.93;1.73;;;11.40;99.90;;;;;;5096316;28;20027;-64
2022/07/10 05:33:05;;;;;;;;;;;11.40;99.90;;;;;;5087201;28;20024;-64
2022/07/10 05:35:30;;;;;;;10.73;1.42;;;11.30;99.90;;;;;;5076429;28;20057;-64
2022/07/10 05:37:56;;;;;;;;;;;11.30;99.90;;;;;;5083592;28;20040;-63
2022/07/10 05:40:22;;;;;;;16.17;1.77;;;11.30;99.90;;;;;;5077455;28;20026;-66
2022/07/10 05:42:47;;;;;;;;;;;11.30;99.90;;;;;;5080532;28;20055;-63
2022/07/10 05:45:13;;;;;;;11.35;1.85;;;11.40;99.90;;;;;;5078193;28;20003;-64
2022/07/10 05:47:39;;;;;;;7.40;1.52;;;11.20;99.90;;;;;;5076158;28;20036;-65
2022/07/10 05:50:04;;;;;;;;;;;11.20;99.90;;;;;;5079453;28;20133;-64
2022/07/10 05:52:30;;;;;;;10.68;1.73;;;11.20;99.90;;;;;;5082210;28;19973;-64
2022/07/10 05:54:56;;;;;;;;;;;11.20;99.90;;;;;;5077983;28;20114;-64
2022/07/10 05:57:22;;;;;;;7.82;1.65;;;11.20;99.90;;;;;;5074897;28;20308;-64
2022/07/10 05:59:47;;;;;;;;;;;11.10;99.90;;;;;;5082560;28;20459;-64
2022/07/10 06:02:13;;;;;;;8.35;1.10;;;11.20;99.90;;;;;;5078368;28;19976;-65
2022/07/10 06:04:39;;;;;;;;;;;11.20;99.90;;;;;;5075989;28;20044;-65
2022/07/10 06:07:05;;;;;;;7.03;1.40;;;11.20;99.90;;;;;;5079502;28;20130;-64
2022/07/10 06:09:30;;;;;;;;;;;11.20;99.90;;;;;;5085794;28;20119;-63
2022/07/10 06:11:56;;;;;;;8.75;1.92;;;11.20;99.90;;;;;;5085566;28;19920;-64
2022/07/10 06:14:21;;;;;;;;;;;11.30;99.90;;;;;;5088013;28;20856;-64
2022/07/10 06:16:47;;;;;;;6.13;1.17;;;11.30;99.90;;;;;;5087219;28;19938;-60
2022/07/10 06:19:12;;;;;;;;;;;11.30;99.90;;;;;;5088885;28;20051;-67
2022/07/10 06:21:38;;;;;;;11.48;1.50;;;11.40;99.90;;;;;;5087974;28;20473;-63
2022/07/10 06:24:03;;;;;;;;;;;11.50;99.90;;;;;;5087003;28;20399;-66
2022/07/10 06:26:29;;;;;;;6.57;1.40;;;11.50;99.90;;;;;;5086007;28;20028;-62
2022/07/10 06:28:54;;;;;;;;;;;11.60;99.90;;;;;;5079115;28;20649;-66
2022/07/10 06:31:20;;;;;;;10.63;2.20;;;11.70;99.90;;;;;;5095043;28;19923;-63
2022/07/10 06:33:46;;;;;;;6.65;1.40;;;11.70;99.90;;;;;;5086960;28;20570;-63
2022/07/10 06:36:12;;;;;;;;;;;11.70;99.90;;;;;;5086570;28;20634;-63
2022/07/10 06:38:38;;;;;;;8.40;0.98;;;11.60;99.90;;;;;;5086867;28;20339;-64
2022/07/10 06:41:03;;;;;;;;;;;11.60;99.90;;;;;;5087236;28;20679;-63
2022/07/10 06:43:29;;;;;;;7.68;1.50;;;11.50;99.90;;;;;;5084219;28;19920;-63
2022/07/10 06:45:55;;;;;;;;;;;11.50;99.90;;;;;;5091531;28;20491;-64
2022/07/10 06:48:21;;;;;;;4.85;0.90;;;11.60;99.90;;;;;;5084881;28;19915;-58
2022/07/10 06:50:47;;;;;;;;;;;11.70;99.90;;;;;;5086690;28;20385;-64
2022/07/10 06:53:12;;;;;;;7.60;1.48;;;11.70;99.90;;;;;;5085802;28;20397;-64
2022/07/10 06:55:38;;;;;;;;;;;11.70;99.90;;;;;;5092019;28;20036;-63
2022/07/10 06:58:03;;;;;;;10.73;1.60;;;11.70;99.90;;;;;;5088637;28;19919;-64
2022/07/10 07:00:29;;;;;;;;;;;11.60;99.90;;;;;;5090026;28;20614;-64
2022/07/10 07:02:55;;;;;;;4.40;1.08;;;11.70;99.90;;;;;;5086608;28;19916;-64
2022/07/10 07:05:20;;;;;;;;;;;11.70;99.90;;;;;;5086461;28;20400;-64
2022/07/10 07:07:46;;;;;;;8.32;1.80;;;11.80;99.90;;;;;;5087459;28;20003;-63
2022/07/10 07:10:12;;;;;;;;;;;11.80;99.90;;;;;;5083739;28;20047;-63
2022/07/10 07:12:38;;;;;;;7.55;1.58;;;11.90;99.90;;;;;;5086396;28;19942;-64
2022/07/10 07:15:04;;;;;;;11.55;1.42;;;11.80;99.90;;;;;;5086698;28;20043;-65
2022/07/10 07:17:46;;;;;;;;;;;11.90;99.90;;;;;;5086548;28;20040;-64
2022/07/10 07:23:09;;;;;;;10.55;1.67;;;12.40;99.90;;;;;;5082504;28;20035;-65
2022/07/10 07:25:35;;;;;;;10.95;1.80;;;13.20;99.90;;;;;;5066415;28;20048;-64
2022/07/10 07:28:00;;;;;;;;;;;13.60;99.90;;;;;;5083619;28;20044;-64
2022/07/10 07:30:26;;;;;;;8.95;1.30;;;13.50;99.90;;;;;;5090813;28;19931;-64
2022/07/10 07:32:51;;;;;;;;;;;13.50;99.90;;;;;;5093226;28;20089;-64
2022/07/10 07:35:17;;;;;;;8.15;1.27;;;13.30;99.90;;;;;;5090946;28;19919;-65
2022/07/10 07:37:44;;;;;;;;;;;13.20;99.90;;;;;;5089286;28;20054;-64
2022/07/10 07:40:12;;;;;;;9.57;1.00;;;13.20;99.90;;;;;;5087962;28;19927;-64
2022/07/10 07:42:39;;;;;;;7.50;1.45;;;13.10;99.90;;;;;;5082785;28;20048;-64
2022/07/10 07:45:05;;;;;;;5.18;1.10;;;13.00;99.90;;;;;;5089614;28;20036;-64
2022/07/10 07:47:42;;;;;;;10.45;1.40;;;12.70;99.90;;;;;;5089408;28;20047;-63
2022/07/10 07:50:07;;;;;;;9.57;1.60;;;12.60;99.90;;;;;;5090204;28;20164;-64
2022/07/10 07:52:35;;;;;;;;;;;12.60;99.90;;;;;;5092976;28;20051;-63
2022/07/10 07:55:01;;;;;;;7.72;1.75;;;12.60;99.90;;;;;;5089948;28;20018;-65
2022/07/10 07:57:26;;;;;;;;;;;12.70;99.90;;;;;;5092900;28;20738;-63
2022/07/10 07:59:52;;;;;;;4.53;1.05;;;13.00;99.90;;;;;;5098065;28;20030;-64
2022/07/10 08:02:17;;;;;;;;;;;13.20;99.90;;;;;;5097310;28;20503;-64
2022/07/10 08:04:43;;;;;;;6.22;1.48;;;13.30;99.90;;;;;;5086170;28;20299;-64
2022/07/10 08:07:08;;;;;;;;;;;13.40;99.90;;;;;;5091710;28;20044;-64
2022/07/10 08:09:34;;;;;;;9.20;1.58;;;13.50;99.90;;;;;;5094698;28;19920;-64
2022/07/10 08:12:00;;;;;;;5.78;1.20;;;13.40;99.90;;;;;;5090700;28;20043;-64
2022/07/10 08:14:26;;;;;;;;;;;13.50;99.90;;;;;;5091749;28;20036;-63
2022/07/10 08:16:51;;;;;;;5.53;1.08;;;13.30;99.90;;;;;;5092554;28;20007;-63
2022/07/10 08:19:17;;;;;;;;;;;13.30;99.90;;;;;;5073616;28;20047;-64
2022/07/10 08:21:43;;;;;;;6.32;1.38;;;13.20;99.90;;;;;;5083505;28;20351;-64
2022/07/10 08:24:09;;;;;;;;;;;13.10;99.90;;;;;;5091106;28;20040;-63
2022/07/10 08:26:34;;;;;;;7.20;0.98;;;13.10;99.90;;;;;;5092066;28;20422;-64
2022/07/10 08:29:00;;;;;;;;;;;13.30;99.90;;;;;;5082455;28;20078;-64
2022/07/10 08:31:25;;;;;;;8.35;1.52;;;13.30;99.90;;;;;;5102737;28;20001;-63
2022/07/10 08:33:52;;;;;;;;;;;13.40;99.90;;;;;;5097817;28;20564;-64
2022/07/10 08:36:17;;;;;;;8.82;1.70;;;13.30;99.90;;;;;;5089605;28;20502;-63
2022/07/10 08:38:43;;;;;;;;;;;13.30;99.90;;;;;;5089116;28;20123;-64
2022/07/10 08:41:10;;;;;;;6.53;1.23;;;13.20;99.90;;;;;;5093055;28;19920;-64
2022/07/10 08:43:36;;;;;;;2.75;0.88;;;13.00;99.90;;;;;;5089536;28;20048;-64
2022/07/10 08:46:03;;;;;;;10.98;1.70;;;12.90;99.90;;;;;;5090209;28;20047;-63
2022/07/10 08:48:30;;;;;;;;;;;12.90;99.90;;;;;;5093905;28;20048;-64
2022/07/10 08:50:58;;;;;;;5.72;1.13;;;12.90;99.90;;;;;;5088027;28;19919;-65
2022/07/10 08:53:30;;;;;;;9.23;1.48;;;13.10;99.90;;;;;;5088264;28;20075;-64
2022/07/10 08:56:00;;;;;;;7.80;1.40;;;13.50;99.90;;;;;;5089163;28;20047;-64
2022/07/10 08:58:32;;;;;;;5.43;1.15;;;13.60;99.90;;;;;;5084377;28;20062;-63
2022/07/10 09:00:58;;;;;;;5.38;1.02;;;13.70;99.90;;;;;;5093346;28;20496;-64
2022/07/10 09:03:23;;;;;;;;;;;13.90;99.90;;;;;;5104506;28;20101;-64
2022/07/10 09:05:51;;;;;;;6.70;1.70;;;14.00;99.90;;;;;;5089944;28;19920;-64
2022/07/10 09:08:30;;;;;;;6.85;1.67;;;13.80;99.90;;;;;;5090884;28;20044;-63
2022/07/10 09:11:23;;;;;;;5.53;1.25;;;13.80;99.90;;;;;;5088371;28;20489;-64
2022/07/10 09:13:53;;;;;;;3.78;0.98;;;13.70;99.90;;;;;;5088149;28;20470;-63
2022/07/10 09:16:24;;;;;;;4.10;1.02;;;13.60;99.90;;;;;;5088780;28;20044;-64
2022/07/10 09:18:49;;;;;;;6.75;1.30;;;13.50;99.90;;;;;;5089284;28;20036;-64
2022/07/10 09:21:16;;;;;;;;;;;13.60;99.90;;;;;;5089226;28;20042;-64
2022/07/10 09:23:41;;;;;;;6.78;1.10;;;13.60;99.90;;;;;;5088043;28;19923;-63
2022/07/10 09:26:07;;;;;;;;;;;13.60;99.90;;;;;;5091217;28;20044;-63
2022/07/10 09:28:32;;;;;;;11.93;1.50;;;13.70;99.90;;;;;;5089456;28;19916;-63
2022/07/10 09:30:58;;;;;;;;;;;13.70;99.90;;;;;;5096577;28;20112;-66
2022/07/10 09:33:25;;;;;;;5.93;1.10;;;13.80;99.90;;;;;;5088903;28;20436;-65
2022/07/10 09:36:11;;;;;;;18.10;1.85;;;13.90;99.90;;;;;;5088933;28;20093;-62
2022/07/10 09:38:42;;;;;;;6.43;1.50;;;14.00;99.90;;;;;;5082867;28;20093;-62
2022/07/10 09:41:13;;;;;;;7.40;1.08;;;14.00;99.90;;;;;;5089658;28;20506;-62
2022/07/10 09:43:47;;;;;;;5.80;1.15;;;14.10;99.90;;;;;;5090218;28;20040;-62
2022/07/10 09:46:13;;;;;;;8.32;1.33;;;14.00;99.90;;;;;;5088949;28;20032;-62
2022/07/10 09:48:39;;;;;;;;;;;14.00;99.90;;;;;;5089845;28;20651;-61
2022/07/10 09:51:09;;;;;;;4.50;0.98;;;14.10;99.90;;;;;;5090113;28;20423;-62
2022/07/10 09:53:40;;;;;;;6.38;1.33;;;14.10;99.90;;;;;;5086632;28;20043;-63
2022/07/10 09:56:08;;;;;;;6.75;1.20;;;14.30;99.90;;;;;;5087553;28;20063;-62
2022/07/10 09:58:37;;;;;;;8.90;1.65;;;14.40;99.90;;;;;;5076651;28;20557;-62
2022/07/10 10:01:07;;;;;;;6.15;1.05;;;14.40;99.90;;;;;;5081355;28;20052;-62
2022/07/10 10:03:35;;;;;;;3.97;0.90;;;14.30;99.90;;;;;;5087016;28;20044;-62
2022/07/10 10:06:03;;;;;;;7.13;1.70;;;14.40;99.90;;;;;;5087088;28;20062;-64
2022/07/10 10:08:37;;;;;;;6.18;1.10;;;14.30;99.90;;;;;;5087556;28;20089;-64
2022/07/10 10:11:06;;;;;;;4.88;0.88;;;14.20;99.90;;;;;;5086429;28;20032;-63
2022/07/10 10:13:34;;;;;;;9.27;1.88;;;14.20;99.90;;;;;;5086095;28;20067;-61
2022/07/10 10:16:02;;;;;;;4.47;1.00;;;14.30;99.90;;;;;;5085740;28;20487;-62
2022/07/10 10:18:29;;;;;;;9.40;1.20;;;14.40;99.90;;;;;;5085145;28;20046;-62
2022/07/10 10:20:55;;;;;;;6.05;1.40;;;14.50;99.90;;;;;;5087159;28;20069;-60
2022/07/10 10:23:25;;;;;;;4.57;1.00;;;14.70;99.90;;;;;;5086504;28;20079;-64
2022/07/10 10:25:56;;;;;;;6.55;1.13;;;14.80;99.90;;;;;;5086568;28;20043;-64
2022/07/10 10:28:26;;;;;;;4.28;1.20;;;14.90;99.90;;;;;;5075051;28;20115;-65
2022/07/10 10:30:54;;;;;;;11.35;2.25;;;14.90;99.90;;;;;;5076715;28;20040;-64
2022/07/10 10:33:32;;;;;;;11.90;2.08;;;14.90;99.90;;;;;;5077439;28;20527;-64
2022/07/10 10:36:02;;;;;;;7.13;1.55;;;14.80;99.90;;;;;;5072357;28;20032;-64
2022/07/10 10:38:51;;;;;;;6.03;1.42;;;14.60;99.90;;;;;;5078507;28;20054;-65
2022/07/10 10:41:23;;;;;;;4.10;1.30;;;14.70;99.90;;;;;;5079502;28;20035;-63
2022/07/10 10:44:07;;;;;;;7.15;1.48;;;14.60;99.90;;;;;;5078090;28;20037;-64
2022/07/10 10:46:33;;;;;;;16.33;1.88;;;14.60;99.90;;;;;;5077245;28;20776;-64
2022/07/10 10:49:06;;;;;;;8.00;2.00;;;14.60;99.90;;;;;;5074647;28;20752;-64
2022/07/10 10:51:57;;;;;;;9.65;1.70;;;14.60;99.90;;;;;;5076199;28;20058;-64
2022/07/10 10:54:23;;;;;;;7.72;1.42;;;14.60;99.90;;;;;;5075476;28;20048;-64
2022/07/10 10:57:18;;;;;;;;;;;14.70;99.90;;;;;;5075595;28;20519;-63
2022/07/10 10:59:54;;;;;;;9.88;1.75;;;14.90;99.90;;;;;;5069629;28;19930;-64
2022/07/10 11:02:29;;;;;;;6.18;1.58;;;15.10;99.90;;;;;;5082947;28;20084;-64
2022/07/10 11:05:18;;;;;;;14.40;2.38;;;15.20;99.90;;;;;;5071695;28;20036;-64
2022/07/10 11:08:00;;;;;;;8.25;1.33;;;15.30;99.90;;;;;;5046299;28;20056;-65
2022/07/10 11:10:30;;;;;;;5.53;1.10;;;15.30;99.90;;;;;;5074922;28;20093;-65
2022/07/10 11:13:14;;;;;;;8.38;1.80;;;15.20;99.90;;;;;;5076455;28;20036;-64
2022/07/10 11:15:42;;;;;;;5.88;1.83;;;15.00;99.90;;;;;;5074520;28;20120;-64
2022/07/10 11:18:10;;;;;;;8.55;2.00;;;14.90;99.90;;;;;;5076133;28;20411;-64
2022/07/10 11:20:45;;;;;;;8.82;1.95;;;14.80;99.90;;;;;;5073342;28;20049;-64
2022/07/10 11:23:47;;;;;;;3.55;0.90;;;14.70;99.90;;;;;;5076871;28;20044;-64
2022/07/10 11:26:43;;;;;;;10.43;2.33;;;14.70;99.90;;;;;;5067212;28;20055;-64
2022/07/10 11:29:09;;;;;;;5.43;1.20;;;14.90;99.90;;;;;;5072199;28;20123;-64
2022/07/10 11:31:39;;;;;;;;;;;14.80;99.90;;;;;;5084299;28;20081;-65
2022/07/10 11:34:04;;;;;;;9.25;1.60;;;14.90;99.90;;;;;;5085842;28;19912;-63
2022/07/10 11:36:32;;;;;;;;;;;14.70;99.90;;;;;;5085714;28;20043;-64
2022/07/10 11:39:05;;;;;;;6.80;1.60;;;14.70;99.90;;;;;;5085515;28;19963;-65
2022/07/10 11:41:32;;;;;;;6.57;1.23;;;14.80;99.90;;;;;;5086306;28;20136;-64
2022/07/10 11:44:02;;;;;;;5.68;1.02;;;14.50;99.90;;;;;;5084778;28;20040;-64
2022/07/10 11:46:30;;;;;;;5.78;1.10;;;14.30;99.90;;;;;;5085665;28;20048;-64
2022/07/10 11:48:56;;;;;;;9.30;1.38;;;14.40;99.90;;;;;;5085100;28;20047;-65
2022/07/10 11:51:24;;;;;;;6.70;1.42;;;14.40;99.90;;;;;;5081516;28;20044;-65
2022/07/10 11:53:58;;;;;;;7.05;1.25;;;14.50;99.90;;;;;;5084375;28;20417;-64
2022/07/10 11:56:25;;;;;;;5.40;1.25;;;14.60;99.90;;;;;;5086970;28;20048;-64
2022/07/10 11:58:58;;;;;;;8.02;2.10;;;14.60;99.90;;;;;;5079603;28;20041;-65
2022/07/10 12:01:24;;;;;;;4.07;1.25;;;14.40;99.90;;;;;;5094094;28;20508;-65
2022/07/10 12:04:01;;;;;;;8.63;1.08;;;14.40;99.90;;;;;;5086366;28;20036;-64
2022/07/10 12:06:27;;;;;;;6.30;1.42;;;14.30;99.90;;;;;;5085785;28;20139;-65
2022/07/10 12:08:52;;;;;;;5.60;1.13;;;14.10;99.90;;;;;;5085745;28;20125;-65
2022/07/10 12:11:19;;;;;;;;;;;14.20;99.90;;;;;;5086560;28;20551;-64
2022/07/10 12:13:46;;;;;;;8.98;1.77;;;14.30;99.90;;;;;;5086712;28;19920;-65
2022/07/10 12:16:12;;;;;;;6.78;1.27;;;14.20;99.90;;;;;;5089153;28;20052;-65
2022/07/10 12:18:41;;;;;;;3.28;1.13;;;14.10;99.90;;;;;;5088990;28;20047;-65
2022/07/10 12:21:08;;;;;;;4.25;1.15;;;14.10;99.90;;;;;;5088817;28;20038;-64
2022/07/10 12:23:40;;;;;;;7.93;1.38;;;14.20;99.90;;;;;;5089111;28;20032;-65
2022/07/10 12:26:09;;;;;;;5.40;1.00;;;14.20;99.90;;;;;;5088672;28;20052;-65
2022/07/10 12:28:52;;;;;;;3.85;1.13;;;14.20;99.90;;;;;;5085152;28;20040;-64
2022/07/10 12:31:26;;;;;;;6.35;1.48;;;14.20;99.90;;;;;;5097613;28;20061;-65
2022/07/10 12:33:59;;;;;;;6.05;1.40;;;14.10;99.90;;;;;;5089141;28;20088;-65
2022/07/10 12:36:26;;;;;;;8.55;1.73;;;14.00;99.90;;;;;;5089113;28;20040;-64
2022/07/10 12:38:57;;;;;;;4.72;1.17;;;14.00;99.90;;;;;;5089023;28;20052;-65
2022/07/10 12:41:24;;;;;;;7.78;1.40;;;13.90;99.90;;;;;;5088854;28;20078;-65
2022/07/10 12:43:51;;;;;;;5.75;1.30;;;13.90;99.90;;;;;;5088914;28;20096;-65
2022/07/10 12:46:19;;;;;;;6.30;1.30;;;13.90;99.90;;;;;;5087774;28;20040;-65
2022/07/10 12:49:08;;;;;;;4.53;1.40;;;13.90;99.90;;;;;;5088956;28;20126;-65
2022/07/10 12:51:50;;;;;;;3.92;1.00;;;13.90;99.90;;;;;;5068836;28;20041;-65
2022/07/10 12:54:37;;;;;;;5.90;1.00;;;14.00;99.90;;;;;;5071358;28;20436;-65
2022/07/10 12:57:05;;;;;;;4.95;1.00;;;14.10;99.90;;;;;;5086800;28;20082;-62
2022/07/10 12:59:34;;;;;;;3.47;1.08;;;14.20;99.90;;;;;;5081019;28;20052;-62
2022/07/10 13:02:22;;;;;;;6.30;1.23;;;14.40;99.90;;;;;;5096723;27;20158;-60
2022/07/10 13:04:55;;;;;;;5.75;1.08;;;14.30;99.90;;;;;;5088398;28;20024;-61
2022/07/10 13:07:29;;;;;;;5.72;1.08;;;14.10;99.90;;;;;;5089300;28;20130;-65
2022/07/10 13:09:54;;;;;;;5.97;1.33;;;14.10;99.90;;;;;;5084178;28;20032;-65
2022/07/10 13:12:20;;;;;;;;;;;14.10;99.90;;;;;;5089498;28;20066;-65
2022/07/10 13:14:46;;;;;;;8.57;2.35;;;14.20;99.90;;;;;;5088014;28;19916;-65
2022/07/10 13:17:12;;;;;;;;;;;14.10;99.90;;;;;;5088457;28;20048;-65
2022/07/10 13:19:37;;;;;;;5.85;1.60;;;14.00;99.90;;;;;;5087770;28;21091;-64
2022/07/10 13:22:03;;;;;;;;;;;14.00;99.90;;;;;;5087016;28;20162;-65